Time,TemperatureF,DewpointF,PressureIn,WindDirection,WindDirectionDegrees,WindSpeedMPH,WindSpeedGustMPH,Humidity,HourlyPrecipIn,Conditions,Clouds,dailyrainin,SolarRadiationWatts/m^2,SoftwareType,DateUTC
2013-03-05 00:21:00,52.0,46.0,30.07,WSW,240,11.0,24.0,79,0.00,,,0.00,0.000000,,2013-03-05 08:21:00,
2013-03-05 00:31:00,52.0,46.0,30.07,WSW,240,11.0,24.0,79,0.00,,,0.00,0.000000,,2013-03-05 08:31:00,
2013-03-05 00:41:00,52.0,46.0,30.07,WSW,240,11.0,24.0,79,0.00,,,0.00,0.000000,,2013-03-05 08:41:00,
2013-03-05 00:52:00,52.0,46.0,30.07,WSW,240,11.0,24.0,79,0.00,,,0.00,0.000000,,2013-03-05 08:52:00,
2013-03-05 01:11:00,52.0,38.0,30.07,SW,221,17.0,28.0,58,0.00,,,0.00,0.000000,,2013-03-05 09:11:00,
2013-03-05 01:21:00,52.0,38.0,30.07,SW,221,17.0,28.0,58,0.00,,,0.00,0.000000,,2013-03-05 09:21:00,
2013-03-05 01:31:00,52.0,38.0,30.07,SW,221,17.0,28.0,58,0.00,,,0.00,0.000000,,2013-03-05 09:31:00,
2013-03-05 01:42:00,52.0,38.0,30.07,SW,221,17.0,28.0,58,0.00,,,0.00,0.000000,,2013-03-05 09:42:00,
2013-03-05 01:51:00,52.0,38.0,30.07,SW,221,17.0,28.0,58,0.00,,,0.00,0.000000,,2013-03-05 09:51:00,
2013-03-05 02:21:00,46.0,37.0,30.07,SW,226,6.0,25.0,72,0.00,,,0.00,0.000000,,2013-03-05 10:21:00,
2013-03-05 02:32:00,46.0,37.0,30.07,SW,226,6.0,25.0,72,0.00,,,0.00,0.000000,,2013-03-05 10:32:00,
2013-03-05 02:42:00,46.0,37.0,30.07,SW,226,6.0,25.0,72,0.00,,,0.00,0.000000,,2013-03-05 10:42:00,
2013-03-05 02:51:00,46.0,37.0,30.07,SW,226,6.0,25.0,72,0.00,,,0.00,0.000000,,2013-03-05 10:51:00,
2013-03-05 03:22:00,44.0,37.0,30.05,NE,38,1.0,14.0,75,0.00,,,0.00,0.000000,,2013-03-05 11:22:00,
2013-03-05 03:32:00,44.0,37.0,30.05,NE,38,1.0,14.0,75,0.00,,,0.00,0.000000,,2013-03-05 11:32:00,
2013-03-05 03:42:00,44.0,37.0,30.05,NE,38,1.0,14.0,75,0.00,,,0.00,0.000000,,2013-03-05 11:42:00,
2013-03-05 03:52:00,44.0,37.0,30.05,NE,38,1.0,14.0,75,0.00,,,0.00,0.000000,,2013-03-05 11:52:00,
2013-03-05 04:22:00,42.0,37.0,-100.00,WSW,249,4.0,8.0,82,0.00,,,0.00,0.000000,,2013-03-05 12:22:00,
2013-03-05 04:32:00,42.0,37.0,-100.00,WSW,249,4.0,8.0,82,0.00,,,0.00,0.000000,,2013-03-05 12:32:00,
2013-03-05 04:42:00,42.0,37.0,-100.00,WSW,249,4.0,8.0,82,0.00,,,0.00,0.000000,,2013-03-05 12:42:00,
2013-03-05 04:52:00,42.0,37.0,-100.00,WSW,249,4.0,8.0,82,0.00,,,0.00,0.000000,,2013-03-05 12:52:00,
2013-03-05 05:21:00,50.0,43.0,30.04,SW,225,9.0,16.0,77,0.00,,,0.00,0.000000,,2013-03-05 13:21:00,
2013-03-05 05:32:00,50.0,43.0,30.04,SW,225,9.0,16.0,77,0.00,,,0.00,0.000000,,2013-03-05 13:32:00,
2013-03-05 05:42:00,50.0,43.0,30.04,SW,225,9.0,16.0,77,0.00,,,0.00,0.000000,,2013-03-05 13:42:00,
2013-03-05 05:51:00,50.0,43.0,30.04,SW,225,9.0,16.0,77,0.00,,,0.00,0.000000,,2013-03-05 13:51:00,
2013-03-05 06:21:00,48.0,41.0,-100.00,SW,230,6.0,15.0,76,0.00,,,0.00,0.000000,,2013-03-05 14:21:00,
2013-03-05 06:31:00,48.0,41.0,-100.00,SW,230,6.0,15.0,76,0.00,,,0.00,0.000000,,2013-03-05 14:31:00,
2013-03-05 06:42:00,48.0,41.0,-100.00,SW,230,6.0,15.0,76,0.00,,,0.00,0.000000,,2013-03-05 14:42:00,
2013-03-05 06:52:00,48.0,41.0,-100.00,SW,230,6.0,15.0,76,0.00,,,0.00,0.000000,,2013-03-05 14:52:00,
2013-03-05 07:21:00,50.0,43.0,-100.00,SW,224,11.0,20.0,76,0.00,,,0.00,21.000000,,2013-03-05 15:21:00,
2013-03-05 07:32:00,50.0,43.0,-100.00,SW,224,11.0,20.0,76,0.00,,,0.00,21.000000,,2013-03-05 15:32:00,
2013-03-05 07:42:00,50.0,43.0,-100.00,SW,224,11.0,20.0,76,0.00,,,0.00,21.000000,,2013-03-05 15:42:00,
2013-03-05 07:51:00,50.0,43.0,-100.00,SW,224,11.0,20.0,76,0.00,,,0.00,21.000000,,2013-03-05 15:51:00,
2013-03-05 08:21:00,58.0,45.0,30.06,SW,215,7.0,18.0,63,0.00,,,0.00,204.000000,,2013-03-05 16:21:00,
2013-03-05 10:21:00,65.0,42.0,30.06,SW,228,14.0,20.0,43,-99.99,,,0.00,665.000000,,2013-03-05 18:21:00,
2013-03-05 10:41:00,65.0,42.0,30.06,SW,228,14.0,20.0,43,-99.99,,,0.00,665.000000,,2013-03-05 18:41:00,
2013-03-05 10:52:00,65.0,42.0,30.06,SW,228,14.0,20.0,43,-99.99,,,0.00,665.000000,,2013-03-05 18:52:00,
2013-03-05 11:21:00,65.0,38.0,-100.00,SW,228,14.0,25.0,37,0.00,,,0.00,815.000000,,2013-03-05 19:21:00,
2013-03-05 11:32:00,65.0,38.0,-100.00,SW,228,14.0,25.0,37,0.00,,,0.00,815.000000,,2013-03-05 19:32:00,
2013-03-05 11:41:00,65.0,38.0,-100.00,SW,228,14.0,25.0,37,0.00,,,0.00,815.000000,,2013-03-05 19:41:00,
2013-03-05 11:51:00,65.0,38.0,-100.00,SW,228,14.0,25.0,37,0.00,,,0.00,815.000000,,2013-03-05 19:51:00,
2013-03-05 12:21:00,69.0,35.0,30.04,SSW,197,15.0,34.0,28,0.00,,,0.00,912.000000,,2013-03-05 20:21:00,
2013-03-05 12:41:00,69.0,35.0,30.04,SSW,197,15.0,34.0,28,0.00,,,0.00,912.000000,,2013-03-05 20:41:00,
2013-03-05 12:52:00,69.0,35.0,30.04,SSW,197,15.0,34.0,28,0.00,,,0.00,912.000000,,2013-03-05 20:52:00,
2013-03-05 13:21:00,68.0,31.0,30.02,SSW,209,14.0,38.0,25,0.00,,,0.00,928.000000,,2013-03-05 21:21:00,
2013-03-05 13:31:00,68.0,31.0,30.02,SSW,209,14.0,38.0,25,0.00,,,0.00,928.000000,,2013-03-05 21:31:00,
2013-03-05 13:41:00,68.0,31.0,30.02,SSW,209,14.0,38.0,25,0.00,,,0.00,928.000000,,2013-03-05 21:41:00,
2013-03-05 13:52:00,68.0,31.0,30.02,SSW,209,14.0,38.0,25,0.00,,,0.00,928.000000,,2013-03-05 21:52:00,
2013-03-05 14:21:00,68.0,30.0,-100.00,SSW,199,16.0,31.0,24,0.00,,,0.00,869.000000,,2013-03-05 22:21:00,
2013-03-05 14:32:00,68.0,30.0,-100.00,SSW,199,16.0,31.0,24,0.00,,,0.00,869.000000,,2013-03-05 22:32:00,
2013-03-05 14:41:00,68.0,30.0,-100.00,SSW,199,16.0,31.0,24,0.00,,,0.00,869.000000,,2013-03-05 22:41:00,
2013-03-05 14:52:00,68.0,30.0,-100.00,SSW,199,16.0,31.0,24,0.00,,,0.00,869.000000,,2013-03-05 22:52:00,
2013-03-05 15:21:00,66.0,36.0,29.99,SW,222,15.0,29.0,33,0.00,,,0.00,729.000000,,2013-03-05 23:21:00,
2013-03-05 15:32:00,66.0,36.0,29.99,SW,222,15.0,29.0,33,0.00,,,0.00,729.000000,,2013-03-05 23:32:00,
2013-03-05 15:41:00,66.0,36.0,29.99,SW,222,15.0,29.0,33,0.00,,,0.00,729.000000,,2013-03-05 23:41:00,
2013-03-05 15:52:00,66.0,36.0,29.99,SW,222,15.0,29.0,33,0.00,,,0.00,729.000000,,2013-03-05 23:52:00,
2013-03-05 16:21:00,62.0,38.0,-100.00,SW,225,14.0,28.0,41,0.00,,,0.00,526.000000,,2013-03-06 00:21:00,
2013-03-05 16:32:00,62.0,38.0,-100.00,SW,225,14.0,28.0,41,0.00,,,0.00,526.000000,,2013-03-06 00:32:00,
2013-03-05 16:41:00,62.0,38.0,-100.00,SW,225,14.0,28.0,41,0.00,,,0.00,526.000000,,2013-03-06 00:41:00,
2013-03-05 16:51:00,62.0,38.0,-100.00,SW,225,14.0,28.0,41,0.00,,,0.00,526.000000,,2013-03-06 00:51:00,
2013-03-05 17:21:00,60.0,42.0,-100.00,SW,220,11.0,25.0,51,0.00,,,0.00,174.000000,,2013-03-06 01:21:00,
2013-03-05 17:31:00,60.0,42.0,-100.00,SW,220,11.0,25.0,51,0.00,,,0.00,174.000000,,2013-03-06 01:31:00,
2013-03-05 17:41:00,60.0,42.0,-100.00,SW,220,11.0,25.0,51,0.00,,,0.00,174.000000,,2013-03-06 01:41:00,
2013-03-05 17:51:00,60.0,42.0,-100.00,SW,220,11.0,25.0,51,0.00,,,0.00,174.000000,,2013-03-06 01:51:00,
2013-03-05 18:21:00,53.0,42.0,-100.00,WSW,255,9.0,44.0,66,0.00,,,0.00,53.000000,,2013-03-06 02:21:00,
2013-03-05 18:31:00,53.0,42.0,-100.00,WSW,255,9.0,44.0,66,0.00,,,0.00,53.000000,,2013-03-06 02:31:00,
2013-03-05 18:41:00,53.0,42.0,-100.00,WSW,255,9.0,44.0,66,0.00,,,0.00,53.000000,,2013-03-06 02:41:00,
2013-03-05 18:52:00,53.0,42.0,-100.00,WSW,255,9.0,44.0,66,0.00,,,0.00,53.000000,,2013-03-06 02:52:00,
2013-03-05 19:21:00,48.0,41.0,-100.00,West,262,11.0,25.0,76,0.00,,,0.00,0.000000,,2013-03-06 03:21:00,
2013-03-05 19:31:00,48.0,41.0,-100.00,West,262,11.0,25.0,76,0.00,,,0.00,0.000000,,2013-03-06 03:31:00,
2013-03-05 19:41:00,48.0,41.0,-100.00,West,262,11.0,25.0,76,0.00,,,0.00,0.000000,,2013-03-06 03:41:00,
2013-03-05 19:52:00,48.0,41.0,-100.00,West,262,11.0,25.0,76,0.00,,,0.00,0.000000,,2013-03-06 03:52:00,
2013-03-05 20:21:00,47.0,40.0,-100.00,West,280,10.0,30.0,77,0.00,,,0.00,0.000000,,2013-03-06 04:21:00,
2013-03-05 20:32:00,47.0,40.0,-100.00,West,280,10.0,30.0,77,0.00,,,0.00,0.000000,,2013-03-06 04:32:00,
2013-03-05 20:41:00,47.0,40.0,-100.00,West,280,10.0,30.0,77,0.00,,,0.00,0.000000,,2013-03-06 04:41:00,
2013-03-05 20:51:00,47.0,40.0,-100.00,West,280,10.0,30.0,77,0.00,,,0.00,0.000000,,2013-03-06 04:51:00,
2013-03-05 21:22:00,47.0,41.0,-100.00,WSW,242,12.0,21.0,81,0.00,,,0.00,0.000000,,2013-03-06 05:22:00,
2013-03-05 21:32:00,47.0,41.0,-100.00,WSW,242,12.0,21.0,81,0.00,,,0.00,0.000000,,2013-03-06 05:32:00,
2013-03-05 21:42:00,47.0,41.0,-100.00,WSW,242,12.0,21.0,81,0.00,,,0.00,0.000000,,2013-03-06 05:42:00,
2013-03-05 21:52:00,47.0,41.0,-100.00,WSW,242,12.0,21.0,81,0.00,,,0.00,0.000000,,2013-03-06 05:52:00,
2013-03-05 22:22:00,47.0,41.0,-100.00,SW,236,12.0,25.0,78,0.00,,,0.00,0.000000,,2013-03-06 06:22:00,
2013-03-05 22:31:00,47.0,41.0,-100.00,SW,236,12.0,25.0,78,0.00,,,0.00,0.000000,,2013-03-06 06:31:00,
2013-03-05 22:41:00,47.0,41.0,-100.00,SW,236,12.0,25.0,78,0.00,,,0.00,0.000000,,2013-03-06 06:41:00,
2013-03-05 22:52:00,47.0,41.0,-100.00,SW,236,12.0,25.0,78,0.00,,,0.00,0.000000,,2013-03-06 06:52:00,
2013-03-05 23:22:00,45.0,37.0,-100.00,SW,236,17.0,31.0,72,0.00,,,0.00,0.000000,,2013-03-06 07:22:00,
2013-03-05 23:31:00,45.0,37.0,-100.00,SW,236,17.0,31.0,72,0.00,,,0.00,0.000000,,2013-03-06 07:31:00,
2013-03-05 23:42:00,45.0,37.0,-100.00,SW,236,17.0,31.0,72,0.00,,,0.00,0.000000,,2013-03-06 07:42:00,
2013-03-05 23:52:00,45.0,37.0,-100.00,SW,236,17.0,31.0,72,0.00,,,0.00,0.000000,,2013-03-06 07:52:00,